CDT,Max TemperatureF,Mean TemperatureF,Min TemperatureF,Max Dew PointF,MeanDew PointF,Min DewpointF,Max Humidity, Mean Humidity, Min Humidity, Max Sea Level PressureIn, Mean Sea Level PressureIn, Min Sea Level PressureIn, Max VisibilityMiles, Mean VisibilityMiles, Min VisibilityMiles, Max Wind SpeedMPH, Mean Wind SpeedMPH, Max Gust SpeedMPH,PrecipitationIn, CloudCover, Events, WindDirDegrees
2013-6-1,90,84,77,76,74,72,91,75,59,29.96,29.92,29.88,10,10,10,16,9,24,0.00,4,,181
2013-6-2,87,79,71,76,72,68,94,77,59,30.04,29.96,29.90,10,8,1,22,6,26,0.59,4,Rain-Thunderstorm,359
2013-6-3,91,82,72,72,70,67,93,70,47,29.96,29.92,29.86,10,10,10,13,5,16,0.00,2,,33
2013-6-4,94,84,73,75,71,65,91,66,41,29.96,29.91,29.85,10,10,10,8,3,12,0.00,3,,72
2013-6-5,94,85,76,77,75,71,94,72,49,29.92,29.87,29.80,10,10,9,13,5,16,0.00,3,,84
2013-6-6,89,79,68,76,71,66,97,80,63,29.90,29.84,29.75,10,9,1,31,3,43,0.88,5,Rain-Thunderstorm,37
2013-6-7,86,77,68,71,68,65,97,74,51,29.94,29.90,29.85,10,10,9,9,3,14,0.00,3,,333
2013-6-8,88,79,69,73,69,59,97,75,52,29.96,29.92,29.88,10,10,7,20,4,30,0.00,2,Thunderstorm,147
2013-6-9,90,81,72,75,71,64,93,78,63,29.99,29.93,29.89,10,9,1,21,3,28,0.61,2,Rain-Thunderstorm,293
2013-6-10,90,81,72,76,73,70,100,78,56,30.03,30.00,29.97,10,10,9,13,4,21,0.00,1,,193
2013-6-11,91,84,76,78,75,74,100,80,59,30.09,30.06,30.02,10,9,6,12,4,16,0.00,2,,186
2013-6-12,92,84,75,77,74,73,100,78,56,30.12,30.07,30.02,10,9,2,10,4,16,0.00,1,,189
2013-6-13,95,85,75,77,74,70,94,69,43,30.09,30.03,29.94,10,10,6,10,4,14,0.00,2,,256
2013-6-14,97,85,72,78,76,73,97,74,51,29.99,29.95,29.86,10,10,8,9,5,,0.36,3,Rain-Thunderstorm,289
2013-6-15,93,84,75,77,75,72,94,73,52,30.02,29.98,29.92,10,10,10,10,3,15,0.00,2,Thunderstorm,220
2013-6-16,91,84,76,76,74,72,94,73,52,30.07,30.02,29.98,10,10,10,13,4,17,0.00,0,,208
2013-6-17,92,84,75,76,73,70,94,73,52,30.04,29.99,29.94,10,10,10,17,6,24,T,1,,214
2013-6-18,92,83,74,75,72,70,94,73,52,30.02,29.98,29.92,10,9,1,20,7,25,0.20,3,Rain-Thunderstorm,238
2013-6-19,88,81,74,75,73,69,94,78,61,30.04,30.01,29.96,10,9,2,13,4,16,0.12,4,Rain-Thunderstorm,21
2013-6-20,93,84,75,76,73,69,94,73,52,30.13,30.07,30.02,10,10,9,21,2,26,0.01,1,Thunderstorm,181
2013-6-21,91,83,74,78,74,72,94,75,56,30.14,30.09,30.04,10,8,1,15,2,21,T,1,Rain-Thunderstorm,187
2013-6-22,92,83,74,76,73,70,94,75,56,30.11,30.05,30.00,10,7,0,15,4,21,0.00,1,Fog-Thunderstorm,140
2013-6-23,91,83,75,76,73,70,94,75,56,30.09,30.04,30.00,10,8,0,17,4,24,1.13,3,Fog-Rain-Thunderstorm,157
2013-6-24,91,84,76,76,74,70,91,73,55,30.12,30.08,30.05,10,10,10,15,5,21,0.05,1,,190
2013-6-25,91,83,75,77,74,72,94,75,56,30.10,30.05,29.99,10,10,3,17,6,20,0.11,2,Rain,170
2013-6-26,93,85,76,76,74,72,91,72,52,30.06,30.01,29.97,10,10,9,13,5,18,0.00,1,,193
2013-6-27,94,84,74,76,74,72,94,73,52,30.05,30.01,29.96,10,10,7,13,4,17,0.00,1,,227
2013-6-28,96,88,80,78,76,70,94,69,43,30.00,29.92,29.83,10,10,9,12,7,17,0.00,1,,259
2013-6-29,99,89,78,80,73,70,85,64,42,29.84,29.80,29.72,10,9,3,16,6,24,0.00,2,,274
2013-6-30,95,84,73,73,64,56,87,58,28,29.86,29.81,29.78,10,10,10,15,6,20,0.00,1,,346